createdAt,value
2023-05-09T00:00:23.986Z,100883.01
2023-05-09T00:01:23.780Z,100884.97
2023-05-09T00:02:23.922Z,100886.5
2023-05-09T00:03:23.826Z,100886.78
2023-05-09T00:04:24.287Z,100887.08
2023-05-09T00:05:24.269Z,100888.56
2023-05-09T00:06:24.086Z,100883.12
2023-05-09T00:07:24.050Z,100885.4
2023-05-09T00:08:23.863Z,100886.2
2023-05-09T00:09:23.908Z,100885.11
2023-05-09T00:10:23.930Z,100886.41
2023-05-09T00:11:23.971Z,100882.66
2023-05-09T00:12:23.994Z,100887.48
2023-05-09T00:13:24.159Z,100884.46
2023-05-09T00:14:24.032Z,100885.98
2023-05-09T00:15:24.224Z,100885.14
2023-05-09T00:16:24.125Z,100886.58
2023-05-09T00:17:24.312Z,100881.24
2023-05-09T00:18:24.144Z,100888.38
2023-05-09T00:19:26.238Z,100888.8
2023-05-09T00:20:24.144Z,100887.77
2023-05-09T00:21:24.115Z,100885.95
2023-05-09T00:22:24.119Z,100882.66
2023-05-09T00:23:24.128Z,100884.64
2023-05-09T00:24:24.130Z,100883.2
2023-05-09T00:25:24.607Z,100885.3
2023-05-09T00:26:24.167Z,100886.78
2023-05-09T00:27:24.210Z,100887.08
2023-05-09T00:28:24.200Z,100886.47
2023-05-09T00:29:24.225Z,100886.94
2023-05-09T00:30:24.245Z,100884.89
2023-05-09T00:31:24.266Z,100885.07
2023-05-09T00:32:24.376Z,100882.56
2023-05-09T00:33:24.282Z,100881.55
2023-05-09T00:34:24.341Z,100879.72
2023-05-09T00:35:24.322Z,100880.94
2023-05-09T00:36:24.336Z,100881.36
2023-05-09T00:37:24.609Z,100880.26
2023-05-09T00:38:24.363Z,100877.12
2023-05-09T00:39:24.356Z,100880.58
2023-05-09T00:40:24.410Z,100878.23
2023-05-09T00:41:24.516Z,100876.95
2023-05-09T00:42:24.495Z,100875.11
2023-05-09T00:43:24.499Z,100877.29
2023-05-09T00:44:24.969Z,100877.8
2023-05-09T00:45:25.154Z,100880.3
2023-05-09T00:46:25.197Z,100877.16
2023-05-09T00:47:25.395Z,100875.02
2023-05-09T00:48:25.036Z,100877.22
2023-05-09T00:49:25.069Z,100875.88
2023-05-09T00:50:25.051Z,100876.92
2023-05-09T00:51:25.278Z,100871.99
2023-05-09T00:52:25.649Z,100875.46
2023-05-09T00:53:25.070Z,100872.88
2023-05-09T00:54:25.708Z,100875.48
2023-05-09T00:55:26.118Z,100879.56
2023-05-09T00:56:25.321Z,100873.27
2023-05-09T00:57:25.206Z,100873.02
2023-05-09T00:58:25.462Z,100878.34
2023-05-09T00:59:25.201Z,100876.08
2023-05-09T01:00:25.364Z,100877.87
2023-05-09T01:01:25.364Z,100882.38
2023-05-09T01:02:25.544Z,100880.85
2023-05-09T01:03:25.983Z,100879.09
2023-05-09T01:04:26.088Z,100881.12
2023-05-09T01:05:30.295Z,100877.34
2023-05-09T01:07:33.284Z,100879.59
2023-05-09T01:16:52.112Z,100877.61
2023-05-09T01:17:59.765Z,100880.48
2023-05-09T01:18:55.721Z,100878.05
2023-05-09T01:19:57.108Z,100878.35
2023-05-09T01:21:00.424Z,100873.66
2023-05-09T01:21:58.056Z,100879.69
2023-05-09T01:26:14.275Z,100873.08
2023-05-09T01:28:13.884Z,100872.78
2023-05-09T01:30:16.163Z,100877.87
2023-05-09T01:31:16.695Z,100875.55
2023-05-09T01:32:17.702Z,100874.3
2023-05-09T01:33:19.142Z,100878.41
2023-05-09T01:34:17.974Z,100876.97
2023-05-09T01:35:16.510Z,100881.2
2023-05-09T01:36:16.999Z,100880.38
2023-05-09T01:37:18.496Z,100881
2023-05-09T01:38:17.700Z,100879.09
2023-05-09T01:39:17.746Z,100880.59
2023-05-09T01:40:17.563Z,100882.62
2023-05-09T01:41:17.490Z,100886.11
2023-05-09T01:42:18.479Z,100880.25
2023-05-09T01:43:17.559Z,100885.41
2023-05-09T01:44:16.676Z,100885.47
2023-05-09T01:45:16.633Z,100885.58
2023-05-09T01:46:21.861Z,100883.88
2023-05-09T01:47:19.597Z,100889.22
2023-05-09T01:48:18.577Z,100887.23
2023-05-09T01:49:20.160Z,100883.14
2023-05-09T01:50:18.832Z,100882.67
2023-05-09T01:51:19.316Z,100883.7
2023-05-09T01:52:19.664Z,100885.31
2023-05-09T01:53:19.784Z,100880.86
2023-05-09T01:54:20.548Z,100886.99
2023-05-09T01:55:19.235Z,100884.52
2023-05-09T01:56:18.874Z,100883.31
2023-05-09T01:57:19.191Z,100879.69
2023-05-09T01:58:20.155Z,100881.61
2023-05-09T01:59:19.660Z,100884.09
2023-05-09T02:00:19.620Z,100881.69
2023-05-09T02:01:19.776Z,100883.09
2023-05-09T02:02:19.190Z,100884.16
2023-05-09T02:03:19.244Z,100883.23
2023-05-09T02:04:19.089Z,100886.7
2023-05-09T02:05:19.983Z,100883.53
2023-05-09T02:06:20.615Z,100888.09
2023-05-09T02:07:19.555Z,100888.53
2023-05-09T02:08:19.390Z,100887.19
2023-05-09T02:09:19.884Z,100886.84
2023-05-09T02:10:20.316Z,100888.66
2023-05-09T02:11:18.969Z,100887.33
2023-05-09T02:12:19.174Z,100891.68
2023-05-09T02:13:19.093Z,100886.7
2023-05-09T02:14:19.038Z,100886.8
2023-05-09T02:15:19.353Z,100889.66
2023-05-09T02:16:20.648Z,100889.59
2023-05-09T02:17:19.070Z,100886.98
2023-05-09T02:18:19.094Z,100889.22
2023-05-09T02:19:19.093Z,100885.67
2023-05-09T02:20:19.201Z,100885.93
2023-05-09T02:21:19.202Z,100886.97
2023-05-09T02:22:19.189Z,100885.3
2023-05-09T02:23:19.749Z,100887.29
2023-05-09T02:24:19.197Z,100887.22
2023-05-09T02:25:19.540Z,100882.3
2023-05-09T02:26:19.502Z,100884.83
2023-05-09T02:27:20.194Z,100887.64
2023-05-09T02:28:20.851Z,100886.19
2023-05-09T02:29:21.271Z,100889.16
2023-05-09T02:30:21.085Z,100882.78
2023-05-09T02:31:21.225Z,100884.8
2023-05-09T02:32:21.788Z,100887.16
2023-05-09T02:33:19.326Z,100885.7
2023-05-09T02:34:19.847Z,100885.58
2023-05-09T02:35:20.229Z,100884.83
2023-05-09T02:36:19.675Z,100885.33
2023-05-09T02:37:20.455Z,100884.3
2023-05-09T02:38:19.887Z,100886.53
2023-05-09T02:39:19.480Z,100882.25
2023-05-09T02:40:20.472Z,100885.16
2023-05-09T02:41:19.612Z,100888.12
2023-05-09T02:42:22.977Z,100886.48
2023-05-09T02:43:19.674Z,100887.11
2023-05-09T02:44:19.623Z,100885.07
2023-05-09T02:45:19.642Z,100883.36
2023-05-09T02:46:19.718Z,100884.84
2023-05-09T02:47:20.103Z,100884.23
2023-05-09T02:48:19.951Z,100886.52
2023-05-09T02:49:31.517Z,100885.22
2023-05-09T02:50:24.236Z,100887.31
2023-05-09T02:51:24.291Z,100889.6
2023-05-09T02:52:24.387Z,100889.07
2023-05-09T02:53:24.464Z,100889.98
2023-05-09T02:54:24.213Z,100887.88
2023-05-09T02:55:24.440Z,100889.11
2023-05-09T02:56:24.137Z,100890.2
2023-05-09T02:57:24.227Z,100887.56
2023-05-09T02:58:24.290Z,100888.12
2023-05-09T02:59:24.481Z,100886.84
2023-05-09T03:00:24.466Z,100888.66
2023-05-09T03:01:24.539Z,100881.9
2023-05-09T03:02:24.331Z,100887.33
2023-05-09T03:03:24.355Z,100881.89
2023-05-09T03:04:24.327Z,100885.64
2023-05-09T03:05:24.380Z,100885.33
2023-05-09T03:06:24.439Z,100883.48
2023-05-09T03:07:24.360Z,100883.53
2023-05-09T03:08:24.338Z,100884.35
2023-05-09T03:09:24.394Z,100881.78
2023-05-09T03:10:24.435Z,100883.52
2023-05-09T03:11:24.448Z,100881.69
2023-05-09T03:12:24.452Z,100879.73
2023-05-09T03:13:24.483Z,100878.98
2023-05-09T03:14:24.716Z,100885.48
2023-05-09T03:15:24.665Z,100878.67
2023-05-09T03:16:24.615Z,100883.36
2023-05-09T03:17:24.756Z,100880.5
2023-05-09T03:18:24.732Z,100885.09
2023-05-09T03:19:24.583Z,100879.3
2023-05-09T03:20:26.035Z,100883.05
2023-05-09T03:21:24.633Z,100884.09
2023-05-09T03:22:24.632Z,100880.34
2023-05-09T03:23:24.640Z,100879.52
2023-05-09T03:24:26.389Z,100879.98
2023-05-09T03:25:24.919Z,100882.66
2023-05-09T03:26:24.966Z,100877.46
2023-05-09T03:27:24.696Z,100878.56
2023-05-09T03:28:24.700Z,100877.79
2023-05-09T03:29:24.927Z,100880.12
2023-05-09T03:30:24.849Z,100876.79
2023-05-09T03:31:24.771Z,100879.17
2023-05-09T03:32:24.844Z,100880.42
2023-05-09T03:33:24.731Z,100876.48
2023-05-09T03:34:24.782Z,100882.86
2023-05-09T03:35:24.789Z,100878.39
2023-05-09T03:36:24.849Z,100877.89
2023-05-09T03:37:26.916Z,100878.19
2023-05-09T03:38:24.839Z,100874.08
2023-05-09T03:39:25.092Z,100878.01
2023-05-09T03:40:24.938Z,100878.34
2023-05-09T03:41:25.097Z,100879.06
2023-05-09T03:42:25.032Z,100872.41
2023-05-09T03:43:24.916Z,100877.89
2023-05-09T03:44:25.435Z,100878.36
2023-05-09T03:45:24.985Z,100878.6
2023-05-09T03:46:25.004Z,100872.98
2023-05-09T03:47:25.172Z,100876.42
2023-05-09T03:48:25.239Z,100877.53
2023-05-09T03:49:25.156Z,100879.14
2023-05-09T03:50:25.049Z,100874.78
2023-05-09T03:51:25.057Z,100876.27
2023-05-09T03:52:25.067Z,100875.97
2023-05-09T03:53:25.034Z,100877.72
2023-05-09T03:54:25.022Z,100874.77
2023-05-09T03:55:25.122Z,100879.48
2023-05-09T03:56:25.165Z,100880.13
2023-05-09T03:57:25.137Z,100882.58
2023-05-09T03:58:25.386Z,100883.62
2023-05-09T03:59:25.150Z,100886.62
2023-05-09T04:00:25.216Z,100881.83
2023-05-09T04:01:25.370Z,100888.02
2023-05-09T04:02:25.353Z,100889.55
2023-05-09T04:03:25.280Z,100889.17
2023-05-09T04:04:25.372Z,100884.77
2023-05-09T04:05:25.359Z,100885.52
2023-05-09T04:06:25.240Z,100885.13
2023-05-09T04:07:25.469Z,100887.11
2023-05-09T04:08:25.490Z,100889.24
2023-05-09T04:09:25.475Z,100890.84
2023-05-09T04:10:25.270Z,100892.71
2023-05-09T04:11:25.252Z,100889.72
2023-05-09T04:12:25.307Z,100891.37
2023-05-09T04:13:25.471Z,100890.38
2023-05-09T04:14:25.577Z,100889.58
2023-05-09T04:15:25.370Z,100893
2023-05-09T04:16:25.609Z,100891.92
2023-05-09T04:17:25.425Z,100894.27
2023-05-09T04:18:25.440Z,100890.25
2023-05-09T04:19:25.602Z,100893.05
2023-05-09T04:20:25.635Z,100891.5
2023-05-09T04:21:25.434Z,100898.83
2023-05-09T04:22:25.488Z,100899.11
2023-05-09T04:23:25.837Z,100899.44
2023-05-09T04:24:25.475Z,100894.12
2023-05-09T04:25:25.574Z,100896.22
2023-05-09T04:26:25.504Z,100896.39
2023-05-09T04:27:25.553Z,100899.31
2023-05-09T04:28:25.527Z,100894.68
2023-05-09T04:29:25.538Z,100902.48
2023-05-09T04:30:25.778Z,100903.31
2023-05-09T04:31:25.686Z,100904.01
2023-05-09T04:32:25.554Z,100900.75
2023-05-09T04:33:25.589Z,100902.38
2023-05-09T04:34:25.802Z,100907.44
2023-05-09T04:35:25.604Z,100903.39
2023-05-09T04:36:25.641Z,100902.8
2023-05-09T04:37:25.650Z,100902.41
2023-05-09T04:38:25.637Z,100906.95
2023-05-09T04:39:25.648Z,100904.06
2023-05-09T04:40:27.053Z,100900.59
2023-05-09T04:41:25.681Z,100903.17
2023-05-09T04:42:25.959Z,100901.98
2023-05-09T04:43:25.853Z,100903.56
2023-05-09T04:44:25.707Z,100907.62
2023-05-09T04:45:25.817Z,100906.62
2023-05-09T04:46:25.971Z,100905.42
2023-05-09T04:47:26.045Z,100907.5
2023-05-09T04:48:25.778Z,100910.55
2023-05-09T04:49:25.783Z,100907.76
2023-05-09T04:50:25.864Z,100907.89
2023-05-09T04:51:26.065Z,100903.44
2023-05-09T04:52:25.829Z,100903.5
2023-05-09T04:53:25.842Z,100901.48
2023-05-09T04:54:25.868Z,100901.79
2023-05-09T04:55:25.865Z,100901.74
2023-05-09T04:56:26.146Z,100899.67
2023-05-09T04:57:26.022Z,100903.11
2023-05-09T04:58:25.930Z,100902.5
2023-05-09T04:59:26.104Z,100903.92
2023-05-09T05:00:25.970Z,100906.27
2023-05-09T05:01:26.019Z,100909.26
2023-05-09T05:02:26.077Z,100905.14
2023-05-09T05:03:26.188Z,100906.74
2023-05-09T05:04:26.221Z,100908.7
2023-05-09T05:05:26.439Z,100910.51
2023-05-09T05:06:26.054Z,100906.47
2023-05-09T05:07:26.013Z,100914.97
2023-05-09T05:08:26.063Z,100909.31
2023-05-09T05:09:26.186Z,100907.59
2023-05-09T05:10:26.105Z,100909.33
2023-05-09T05:11:26.155Z,100910.72
2023-05-09T05:12:26.065Z,100907.53
2023-05-09T05:13:26.331Z,100911.05
2023-05-09T05:14:26.519Z,100913.82
2023-05-09T05:15:26.105Z,100914.91
2023-05-09T05:16:26.163Z,100909.74
2023-05-09T05:17:26.148Z,100914.34
2023-05-09T05:18:26.168Z,100917.14
2023-05-09T05:19:26.258Z,100912.51
2023-05-09T05:20:26.208Z,100913.95
2023-05-09T05:21:26.233Z,100914.9
2023-05-09T05:22:26.260Z,100912.41
2023-05-09T05:23:26.232Z,100919.52
2023-05-09T05:24:26.278Z,100913.95
2023-05-09T05:25:26.520Z,100912.89
2023-05-09T05:26:26.306Z,100908.7
2023-05-09T05:27:26.408Z,100912.5
2023-05-09T05:28:26.484Z,100911.5
2023-05-09T05:29:26.455Z,100905.66
2023-05-09T05:30:26.327Z,100905.92
2023-05-09T05:31:26.749Z,100906.86
2023-05-09T05:32:26.587Z,100904.7
2023-05-09T05:33:26.759Z,100907.34
2023-05-09T05:34:26.362Z,100909.66
2023-05-09T05:35:26.619Z,100912.3
2023-05-09T05:36:26.544Z,100907.31
2023-05-09T05:37:26.464Z,100906.81
2023-05-09T05:38:26.461Z,100906.88
2023-05-09T05:39:26.450Z,100905.45
2023-05-09T05:40:26.509Z,100907.55
2023-05-09T05:41:26.487Z,100908.41
2023-05-09T05:42:26.701Z,100905.72
2023-05-09T05:43:27.039Z,100901.97
2023-05-09T05:44:26.757Z,100900.24
2023-05-09T05:45:26.533Z,100905.52
2023-05-09T05:46:26.544Z,100903.42
2023-05-09T05:47:26.655Z,100905.72
2023-05-09T05:48:26.571Z,100903.26
2023-05-09T05:49:26.556Z,100904.78
2023-05-09T05:50:26.626Z,100905.72
2023-05-09T05:51:26.808Z,100903.27
2023-05-09T05:52:26.599Z,100906.75
2023-05-09T05:53:26.633Z,100906.44
2023-05-09T05:54:26.672Z,100901.67
2023-05-09T05:55:26.675Z,100895.27
2023-05-09T05:56:27.285Z,100898.34
2023-05-09T05:57:26.722Z,100903.26
2023-05-09T05:58:26.743Z,100898.2
2023-05-09T05:59:26.737Z,100902.84
2023-05-09T06:00:26.748Z,100900.64
2023-05-09T06:01:27.248Z,100897.59
2023-05-09T06:02:26.843Z,100896.43
2023-05-09T06:03:27.013Z,100899.14
2023-05-09T06:04:26.757Z,100904.06
2023-05-09T06:05:26.996Z,100897.55
2023-05-09T06:06:27.017Z,100898.23
2023-05-09T06:07:27.190Z,100900.36
2023-05-09T06:08:26.813Z,100897.28
2023-05-09T06:09:26.871Z,100901.33
2023-05-09T06:10:27.064Z,100902.2
2023-05-09T06:11:26.874Z,100899.55
2023-05-09T06:12:28.067Z,100895.76
2023-05-09T06:13:26.999Z,100900.15
2023-05-09T06:14:26.928Z,100897.5
2023-05-09T06:15:26.951Z,100896.16
2023-05-09T06:16:27.535Z,100895.58
2023-05-09T06:17:26.957Z,100893.39
2023-05-09T06:18:27.034Z,100897.19
2023-05-09T06:19:27.079Z,100891.17
2023-05-09T06:20:27.024Z,100893.62
2023-05-09T06:21:26.988Z,100890.95
2023-05-09T06:22:27.033Z,100893.88
2023-05-09T06:23:27.022Z,100897.38
2023-05-09T06:24:35.882Z,100894.03
2023-05-09T06:25:28.348Z,100893.79
2023-05-09T06:26:28.487Z,100899.17
2023-05-09T06:27:28.349Z,100895.84
2023-05-09T06:28:28.486Z,100895.58
2023-05-09T06:29:28.383Z,100896.35
2023-05-09T06:30:28.398Z,100895.36
2023-05-09T06:31:28.411Z,100893.52
2023-05-09T06:32:28.597Z,100887.92
2023-05-09T06:33:28.376Z,100880.61
2023-05-09T06:34:28.485Z,100885.18
2023-05-09T06:35:28.595Z,100890.06
2023-05-09T06:36:28.600Z,100885.97
2023-05-09T06:37:32.475Z,100885.03
2023-05-09T06:38:29.172Z,100889.28
2023-05-09T06:39:29.226Z,100888.17
2023-05-09T06:40:29.190Z,100885.55
2023-05-09T06:41:29.411Z,100885.22
2023-05-09T06:42:29.430Z,100882.69
2023-05-09T06:43:29.216Z,100883.66
2023-05-09T06:44:29.395Z,100884.44
2023-05-09T06:45:29.469Z,100891.14
2023-05-09T06:46:29.530Z,100885.05
2023-05-09T06:47:29.251Z,100882.82
2023-05-09T06:48:29.530Z,100880.69
2023-05-09T06:49:29.470Z,100884.28
2023-05-09T06:50:31.466Z,100884.7
2023-05-09T06:51:29.783Z,100882.7
2023-05-09T06:52:29.601Z,100887.31
2023-05-09T06:53:29.817Z,100881.52
2023-05-09T06:54:29.648Z,100883.14
2023-05-09T06:55:29.788Z,100878.78
2023-05-09T06:56:29.667Z,100882.84
2023-05-09T06:57:30.223Z,100879.42
2023-05-09T06:58:29.797Z,100878.09
2023-05-09T06:59:29.713Z,100871.61
2023-05-09T07:00:30.060Z,100879.03
2023-05-09T07:01:29.761Z,100873.47
2023-05-09T07:02:29.694Z,100870.72
2023-05-09T07:03:30.050Z,100868.61
2023-05-09T07:04:29.813Z,100870.97
2023-05-09T07:05:30.242Z,100864.91
2023-05-09T07:06:29.793Z,100863.45
2023-05-09T07:07:29.791Z,100864.3
2023-05-09T07:08:29.831Z,100861.3
2023-05-09T07:09:29.817Z,100868.02
2023-05-09T07:10:30.213Z,100871.73
2023-05-09T07:11:34.037Z,100865.44
2023-05-09T07:12:31.162Z,100859.31
2023-05-09T07:13:30.728Z,100859.85
2023-05-09T07:14:30.734Z,100861.58
2023-05-09T07:15:41.162Z,100858.95
2023-05-09T07:16:35.783Z,100862.83
2023-05-09T07:17:34.295Z,100866.5
2023-05-09T07:18:34.055Z,100859.66
2023-05-09T07:19:34.385Z,100857.85
2023-05-09T07:20:34.165Z,100854.34
2023-05-09T07:21:34.193Z,100852.97
2023-05-09T07:22:36.440Z,100860.62
2023-05-09T07:23:34.290Z,100854.33
2023-05-09T07:24:34.295Z,100855.11
2023-05-09T07:25:34.581Z,100853.6
2023-05-09T07:26:37.401Z,100847.92
2023-05-09T07:27:35.121Z,100850
2023-05-09T07:28:34.343Z,100848.78
2023-05-09T07:29:34.604Z,100851.85
2023-05-09T07:30:34.466Z,100843.88
2023-05-09T07:31:36.759Z,100846.38
2023-05-09T07:32:35.073Z,100843.73
2023-05-09T07:33:34.702Z,100840.49
2023-05-09T07:34:35.469Z,100842.62
2023-05-09T07:35:34.552Z,100839.25
2023-05-09T07:36:35.498Z,100843.65
2023-05-09T07:37:34.492Z,100842.45
2023-05-09T07:38:34.483Z,100842.69
2023-05-09T07:39:34.518Z,100840.37
2023-05-09T07:40:34.524Z,100841.72
2023-05-09T07:41:34.722Z,100839.09
2023-05-09T07:42:34.788Z,100837.39
2023-05-09T07:43:34.938Z,100836.17
2023-05-09T07:44:34.610Z,100831.69
2023-05-09T07:45:34.784Z,100841.37
2023-05-09T07:46:37.423Z,100839.47
2023-05-09T07:47:34.817Z,100830.69
2023-05-09T07:48:34.632Z,100830.89
2023-05-09T07:49:34.969Z,100830.94
2023-05-09T07:50:34.893Z,100826.06
2023-05-09T07:51:34.953Z,100839.78
2023-05-09T07:52:34.795Z,100830.4
2023-05-09T07:53:34.913Z,100833.56
2023-05-09T07:54:34.762Z,100836.3
2023-05-09T07:55:34.781Z,100830.25
2023-05-09T07:56:34.844Z,100828.98
2023-05-09T07:57:34.947Z,100828.73
2023-05-09T07:58:34.842Z,100824.65
2023-05-09T07:59:34.815Z,100823.98
2023-05-09T08:00:35.476Z,100827.01
2023-05-09T08:01:35.492Z,100818.41
2023-05-09T08:02:35.762Z,100822.56
2023-05-09T08:03:35.838Z,100824.2
2023-05-09T08:04:35.530Z,100818.09
2023-05-09T08:05:35.863Z,100814.39
2023-05-09T08:06:35.768Z,100814.28
2023-05-09T08:07:35.663Z,100810.09
2023-05-09T08:08:36.647Z,100812.13
2023-05-09T08:09:35.614Z,100808.81
2023-05-09T08:10:35.780Z,100812.01
2023-05-09T08:11:35.872Z,100803.64
2023-05-09T08:12:35.602Z,100804.1
2023-05-09T08:13:36.209Z,100805.32
2023-05-09T08:14:35.618Z,100800.66
2023-05-09T08:15:35.686Z,100795.4
2023-05-09T08:16:35.733Z,100799.38
2023-05-09T08:17:35.976Z,100800.61
2023-05-09T08:18:35.737Z,100797.15
2023-05-09T08:19:35.932Z,100799.81
2023-05-09T08:20:35.675Z,100798.33
2023-05-09T08:21:35.758Z,100798.86
2023-05-09T08:22:35.761Z,100798.23
2023-05-09T08:23:35.920Z,100798.9
2023-05-09T08:24:40.907Z,100796.19
2023-05-09T08:25:37.623Z,100796.77
2023-05-09T08:26:37.561Z,100794.5
2023-05-09T08:27:38.028Z,100796.09
2023-05-09T08:28:37.650Z,100790.62
2023-05-09T08:29:37.618Z,100789.21
2023-05-09T08:30:37.846Z,100796.23
2023-05-09T08:31:37.755Z,100791.81
2023-05-09T08:32:37.767Z,100784.98
2023-05-09T08:33:39.320Z,100789.86
2023-05-09T08:34:37.760Z,100783.53
2023-05-09T08:35:37.730Z,100785.55
2023-05-09T08:36:37.834Z,100793.53
2023-05-09T08:37:37.767Z,100791.41
2023-05-09T08:38:37.974Z,100785.43
2023-05-09T08:39:37.800Z,100786.55
2023-05-09T08:40:38.012Z,100783.08
2023-05-09T08:41:38.765Z,100784.58
2023-05-09T08:42:38.128Z,100780.41
2023-05-09T08:43:39.690Z,100776.91
2023-05-09T08:44:38.217Z,100778.55
2023-05-09T08:45:50.657Z,100772.73
2023-05-09T08:46:44.032Z,100774.8
2023-05-09T08:47:42.516Z,100776.16
2023-05-09T08:48:43.965Z,100778.48
2023-05-09T08:49:42.613Z,100779.84
2023-05-09T08:50:45.722Z,100783.78
2023-05-09T08:51:42.860Z,100777.31
2023-05-09T08:52:43.012Z,100779.92
2023-05-09T08:53:43.080Z,100781.85
2023-05-09T08:54:43.217Z,100772.44
2023-05-09T08:55:43.001Z,100775.72
2023-05-09T08:56:43.106Z,100764.31
2023-05-09T08:57:42.928Z,100763.55
2023-05-09T08:58:42.678Z,100766.92
2023-05-09T08:59:43.219Z,100772.14
2023-05-09T09:00:43.241Z,100770.38
2023-05-09T09:01:44.612Z,100775.19
2023-05-09T09:02:43.670Z,100762.2
2023-05-09T09:03:43.315Z,100773.68
2023-05-09T09:04:42.877Z,100776.5
2023-05-09T09:05:43.048Z,100774.38
2023-05-09T09:06:43.096Z,100769.09
2023-05-09T09:07:43.685Z,100770.23
2023-05-09T09:08:44.020Z,100770.75
2023-05-09T09:09:45.664Z,100765.73
2023-05-09T09:10:44.120Z,100765.58
2023-05-09T09:11:43.519Z,100756.18
2023-05-09T09:12:43.517Z,100765.37
2023-05-09T09:13:43.790Z,100762.55
2023-05-09T09:14:46.615Z,100755.71
2023-05-09T09:15:43.875Z,100756.91
2023-05-09T09:16:44.584Z,100761.81
2023-05-09T09:17:43.818Z,100765.54
2023-05-09T09:18:44.566Z,100764.8
2023-05-09T09:19:44.584Z,100761.35
2023-05-09T09:20:45.867Z,100756.75
2023-05-09T09:21:45.241Z,100755.05
2023-05-09T09:22:43.888Z,100760.61
2023-05-09T09:23:44.010Z,100748.72
2023-05-09T09:24:43.647Z,100763.98
2023-05-09T09:25:45.464Z,100752.56
2023-05-09T09:26:45.889Z,100758.84
2023-05-09T09:27:43.486Z,100753.93
2023-05-09T09:28:43.524Z,100751.69
2023-05-09T09:29:43.563Z,100754.65
2023-05-09T09:30:44.275Z,100749.88
2023-05-09T09:31:44.654Z,100746.06
2023-05-09T09:32:43.604Z,100751.89
2023-05-09T09:33:43.954Z,100752.88
2023-05-09T09:34:43.741Z,100756.12
2023-05-09T09:35:43.608Z,100753.22
2023-05-09T09:36:43.829Z,100750.69
2023-05-09T09:37:43.673Z,100748.89
2023-05-09T09:38:43.691Z,100751.88
2023-05-09T09:39:53.332Z,100752.52
2023-05-09T09:40:54.808Z,100746.84
2023-05-09T09:41:46.513Z,100749.83
2023-05-09T09:42:47.841Z,100748.7
2023-05-09T09:43:46.518Z,100745.7
2023-05-09T09:44:50.853Z,100747.59
2023-05-09T09:45:50.567Z,100747.09
2023-05-09T09:46:51.392Z,100744.66
2023-05-09T09:47:48.735Z,100738.47
2023-05-09T09:48:48.237Z,100740.55
2023-05-09T09:49:48.202Z,100745.14
2023-05-09T09:50:48.278Z,100736.08
2023-05-09T09:51:51.273Z,100734.42
2023-05-09T09:52:51.820Z,100734.11
2023-05-09T09:53:48.748Z,100731.13
2023-05-09T09:54:48.557Z,100728.69
2023-05-09T09:55:49.549Z,100733.7
2023-05-09T09:56:49.686Z,100732.45
2023-05-09T09:57:48.643Z,100730.8
2023-05-09T09:58:48.639Z,100731.61
2023-05-09T09:59:58.002Z,100731.22
2023-05-09T10:01:03.932Z,100727.68
2023-05-09T10:01:57.606Z,100733.61
2023-05-09T10:02:55.684Z,100733.44
2023-05-09T10:03:54.372Z,100727.33
2023-05-09T10:04:54.501Z,100731.47
2023-05-09T10:06:01.187Z,100730.88
2023-05-09T10:06:58.976Z,100725.49
2023-05-09T10:08:01.924Z,100729.08
2023-05-09T10:08:58.597Z,100730.05
2023-05-09T10:09:58.678Z,100728.23
2023-05-09T10:10:59.513Z,100729.7
2023-05-09T10:12:02.369Z,100727.89
2023-05-09T10:13:00.187Z,100720.19
2023-05-09T10:13:59.078Z,100723.73
2023-05-09T10:14:59.128Z,100723.37
2023-05-09T10:15:59.509Z,100722.66
2023-05-09T10:17:00.829Z,100723.98
2023-05-09T10:18:00.634Z,100722.59
2023-05-09T10:18:59.403Z,100718.56
2023-05-09T10:20:01.624Z,100722.67
2023-05-09T10:20:59.402Z,100721.25
2023-05-09T10:22:03.373Z,100720.61
2023-05-09T10:23:03.949Z,100717.01
2023-05-09T10:24:02.425Z,100720.34
2023-05-09T10:25:05.332Z,100717.5
2023-05-09T10:27:03.798Z,100713.25
2023-05-09T10:28:04.541Z,100709.95
2023-05-09T10:29:07.510Z,100710.73
2023-05-09T10:30:06.888Z,100715.92
2023-05-09T10:32:11.939Z,100713.13
2023-05-09T10:33:09.672Z,100713.19
2023-05-09T10:34:10.183Z,100710.89
2023-05-09T10:35:10.313Z,100702.12
2023-05-09T10:36:09.013Z,100697.05
2023-05-09T10:37:08.471Z,100703.13
2023-05-09T10:38:09.118Z,100701.02
2023-05-09T10:39:08.518Z,100698.22
2023-05-09T10:40:09.022Z,100693.79
2023-05-09T10:41:08.704Z,100693.92
2023-05-09T10:42:08.485Z,100695.09
2023-05-09T10:43:08.703Z,100693.41
2023-05-09T10:44:08.517Z,100689.73
2023-05-09T10:45:09.234Z,100689.08
2023-05-09T10:46:09.103Z,100684.39
2023-05-09T10:47:08.719Z,100679.91
2023-05-09T10:48:09.061Z,100681.34
2023-05-09T10:49:08.628Z,100677.36
2023-05-09T10:50:10.319Z,100675.28
2023-05-09T10:51:09.221Z,100676.89
2023-05-09T10:52:09.045Z,100678.47
2023-05-09T10:53:09.932Z,100682.2
2023-05-09T10:55:12.188Z,100678.56
2023-05-09T10:57:18.221Z,100675.68
2023-05-09T11:02:24.802Z,100671.03
2023-05-09T11:03:25.728Z,100669.84
2023-05-09T11:04:24.680Z,100661.31
2023-05-09T11:05:24.708Z,100666.33
2023-05-09T11:07:27.217Z,100661.97
2023-05-09T11:08:28.260Z,100655.55
2023-05-09T11:10:41.554Z,100667.48
2023-05-09T11:11:33.258Z,100660.9
2023-05-09T11:12:33.258Z,100663.94
2023-05-09T11:13:37.521Z,100660.46
2023-05-09T11:15:51.769Z,100662.12
2023-05-09T11:17:43.503Z,100661.39
2023-05-09T11:18:50.171Z,100656.52
2023-05-09T11:20:48.864Z,100650.34
2023-05-09T11:22:52.938Z,100648.43
2023-05-09T11:23:52.419Z,100653.55
2023-05-09T11:24:52.134Z,100649.41
2023-05-09T11:25:51.255Z,100646.98
2023-05-09T11:26:51.154Z,100641.97
2023-05-09T11:27:51.502Z,100645.05
2023-05-09T11:28:52.098Z,100640.11
2023-05-09T11:29:55.859Z,100654.03
2023-05-09T11:30:52.915Z,100645.77
2023-05-09T11:32:55.084Z,100637.16
2023-05-09T11:34:00.805Z,100641.61
2023-05-09T11:35:10.700Z,100633.23
2023-05-09T11:38:06.320Z,100635.3
2023-05-09T11:39:06.894Z,100634.64
2023-05-09T11:40:06.777Z,100631.29
2023-05-09T11:41:06.362Z,100632.22
2023-05-09T11:42:06.046Z,100627.14
2023-05-09T11:43:07.134Z,100625.97
2023-05-09T11:45:09.771Z,100627.69
2023-05-09T11:46:08.135Z,100626.69
2023-05-09T11:47:09.173Z,100623.61
2023-05-09T11:48:08.892Z,100623.03
2023-05-09T11:49:09.574Z,100622.54
2023-05-09T11:50:09.123Z,100628.31
2023-05-09T11:51:15.736Z,100620.26
2023-05-09T11:52:11.984Z,100620.05
2023-05-09T11:53:11.999Z,100618.65
2023-05-09T11:54:11.996Z,100613.49
2023-05-09T11:55:14.297Z,100618.81
2023-05-09T11:56:12.818Z,100615.12
2023-05-09T11:57:12.292Z,100613.16
2023-05-09T11:58:13.150Z,100613.34
2023-05-09T11:59:12.093Z,100616.02
2023-05-09T12:00:12.868Z,100616.32
2023-05-09T12:01:12.514Z,100616.73